METAR Data
IDs: Format: Raw Decoded Include TAF

Data at: 1239 UTC 15 Jul 2020

KMKS 151235Z AUTO 00000KT 10SM OVC110 27/26 A3007 RMK AO2
KMKS 151215Z AUTO 00000KT 7SM OVC110 26/26 A3007 RMK AO2
KMKS 151155Z AUTO 00000KT 5SM BR BKN110 25/25 A3006 RMK AO2
KMKS 151135Z AUTO 00000KT 7SM CLR 23/23 A3006 RMK AO2
KMKS 151115Z AUTO 00000KT 7SM CLR 23/23 A3006 RMK AO2
KMKS 151055Z AUTO 00000KT 5SM BR CLR 22/22 A3005 RMK AO2
KMKS 151035Z AUTO 00000KT 4SM BR CLR 22/22 A3004 RMK AO2
KMKS 151015Z AUTO 00000KT 7SM CLR 22/22 A3003 RMK AO2
KMKS 150955Z AUTO 00000KT 5SM BR CLR 22/22 A3003 RMK AO2
KMKS 150935Z AUTO 00000KT 7SM CLR 23/23 A3002 RMK AO2
KMKS 150915Z AUTO 00000KT 7SM CLR 23/23 A3001 RMK AO2
KMKS 150855Z AUTO 00000KT 5SM BR SCT110 23/23 A3001 RMK AO2
KMKS 150835Z AUTO 00000KT 5SM BR SCT110 23/23 A3001 RMK AO2
KMKS 150815Z AUTO 00000KT 7SM SCT110 23/23 A3001 RMK AO2
KMKS 150755Z AUTO 00000KT 7SM CLR 23/23 A3001 RMK AO2
KMKS 150735Z AUTO 00000KT 7SM CLR 23/23 A3001 RMK AO2
KMKS 150715Z AUTO 00000KT 10SM CLR 23/23 A3000 RMK AO2
KMKS 150655Z AUTO 00000KT 10SM CLR 23/23 A3001 RMK AO2
KMKS 150635Z AUTO 00000KT 10SM CLR 23/23 A3002 RMK AO2
KMKS 150615Z AUTO 00000KT 7SM CLR 23/23 A3003 RMK AO2
KMKS 150555Z AUTO 00000KT 7SM CLR 23/23 A3003 RMK AO2
KMKS 150535Z AUTO 00000KT 7SM CLR 23/23 A3003 RMK AO2
KMKS 150515Z AUTO 00000KT 7SM CLR 23/23 A3003 RMK AO2
KMKS 150455Z AUTO 00000KT 10SM CLR 23/23 A3003 RMK AO2
KMKS 150435Z AUTO 00000KT 10SM CLR 23/23 A3004 RMK AO2
KMKS 150415Z AUTO 00000KT 10SM CLR 23/23 A3004 RMK AO2
KMKS 150355Z AUTO 00000KT 10SM CLR 23/23 A3004 RMK AO2
KMKS 150335Z AUTO 00000KT 10SM CLR 24/23 A3004 RMK AO2
KMKS 150315Z AUTO 00000KT 7SM CLR 24/24 A3004 RMK AO2
KMKS 150255Z AUTO 00000KT 10SM CLR 25/24 A3004 RMK AO2
KMKS 150235Z AUTO 00000KT 10SM CLR 25/23 A3004 RMK AO2
KMKS 150215Z AUTO 00000KT 10SM CLR 25/23 A3003 RMK AO2
KMKS 150155Z AUTO 00000KT 7SM CLR 26/23 A3003 RMK AO2
KMKS 150135Z AUTO 00000KT 10SM CLR 26/23 A3002 RMK AO2
KMKS 150115Z AUTO 19004KT 10SM CLR 26/23 A3002 RMK AO2
KMKS 150055Z AUTO 19003KT 10SM CLR 26/23 A3001 RMK AO2
KMKS 150035Z AUTO 17003KT 10SM CLR 27/23 A3000 RMK AO2
KMKS 150015Z AUTO 20004KT 10SM CLR 27/23 A3001 RMK AO2
KMKS 142355Z AUTO 21009KT 10SM SCT024 28/23 A3001 RMK AO2 LTG DSNT SW
KMKS 142335Z AUTO 21012G17KT 7SM SCT024 30/25 A3000 RMK AO2
KMKS 142315Z AUTO 20007KT 10SM CLR 30/26 A2999 RMK AO2
KMKS 142255Z AUTO 18004KT 7SM CLR 30/25 A2998 RMK AO2 LTG DSNT SW
KMKS 142235Z AUTO 16004KT 7SM SCT039 31/25 A2997 RMK AO2 LTG DSNT SW
KMKS 142215Z AUTO 16005KT 10SM CLR 32/24 A2997 RMK AO2 LTG DSNT S
KMKS 142155Z AUTO 00000KT 10SM CLR 33/21 A2996 RMK AO2
KMKS 142135Z AUTO 36004KT 10SM CLR 33/20 A2996 RMK AO2
KMKS 142115Z AUTO 00000KT 5SM HZ CLR 33/20 A2996 RMK AO2
KMKS 142055Z AUTO 05003KT 7SM CLR 33/20 A2995 RMK AO2
KMKS 142035Z AUTO 03003KT 7SM CLR 33/21 A2995 RMK AO2
KMKS 142015Z AUTO 00000KT 10SM CLR 33/21 A2996 RMK AO2
KMKS 141955Z AUTO 01004KT 10SM CLR 33/20 A2996 RMK AO2
KMKS 141935Z AUTO 03004KT 10SM CLR 33/20 A2997 RMK AO2
KMKS 141915Z AUTO 02004KT 10SM CLR 33/21 A2997 RMK AO2
KMKS 141855Z AUTO 03004KT 7SM CLR 33/22 A2997 RMK AO2
KMKS 141835Z AUTO 01004KT 7SM CLR 32/22 A2998 RMK AO2
KMKS 141815Z AUTO 04004KT 7SM CLR 32/22 A2998 RMK AO2
KMKS 141755Z AUTO 35003KT 10SM CLR 32/22 A2998 RMK AO2
KMKS 141735Z AUTO 36005KT 7SM CLR 32/22 A2998 RMK AO2
KMKS 141715Z AUTO 01003KT 7SM CLR 32/24 A2998 RMK AO2
KMKS 141655Z AUTO 35003KT 7SM CLR 31/23 A2999 RMK AO2
KMKS 141635Z AUTO 00000KT 10SM CLR 31/23 A2999 RMK AO2
KMKS 141615Z AUTO 00000KT 10SM CLR 30/24 A3000 RMK AO2
KMKS 141555Z AUTO 35003KT 10SM CLR 30/25 A3000 RMK AO2
KMKS 141535Z AUTO 00000KT 7SM CLR 30/25 A3000 RMK AO2
KMKS 141515Z AUTO 00000KT 10SM CLR 29/24 A3000 RMK AO2
KMKS 141455Z AUTO 01003KT 10SM CLR 29/24 A3000 RMK AO2
KMKS 141435Z AUTO 04004KT 7SM CLR 29/24 A2999 RMK AO2
KMKS 141415Z AUTO 00000KT 10SM SCT055 28/24 A2999 RMK AO2
KMKS 141355Z AUTO 00000KT 10SM BKN055 28/24 A2999 RMK AO2
KMKS 141335Z AUTO 00000KT 10SM SCT055 27/24 A2999 RMK AO2
KMKS 141315Z AUTO 00000KT 10SM CLR 26/24 A2998 RMK AO2
KMKS 141255Z AUTO 00000KT 10SM CLR 26/23 A2998 RMK AO2
KMKS 141235Z AUTO 04003KT 7SM CLR 25/23 A2997 RMK AO2
KMKS 141215Z AUTO 05003KT 7SM CLR 25/23 A2995 RMK AO2
KMKS 141155Z AUTO 00000KT 7SM CLR 23/23 A2995 RMK AO2 LTG DSNT E AND SE
KMKS 141135Z AUTO 00000KT 10SM CLR 23/23 A2995 RMK AO2
KMKS 141115Z AUTO 00000KT 7SM CLR 22/22 A2994 RMK AO2
KMKS 141055Z AUTO 00000KT 4SM BR CLR 21/21 A2994 RMK AO2
KMKS 141035Z AUTO 00000KT 4SM BR CLR 21/21 A2994 RMK AO2
KMKS 140955Z AUTO 00000KT 10SM CLR 22/22 A2992 RMK AO2
KMKS 140935Z AUTO 00000KT 7SM CLR 22/22 A2992 RMK AO2
KMKS 140915Z AUTO 00000KT 7SM CLR 22/22 A2991 RMK AO2
KMKS 140855Z AUTO 00000KT 7SM CLR 22/22 A2991 RMK AO2
KMKS 140835Z AUTO 00000KT 7SM CLR 22/22 A2990 RMK AO2
KMKS 140815Z AUTO 00000KT 10SM CLR 22/22 A2990 RMK AO2
KMKS 140715Z AUTO 00000KT 7SM SCT080 22/22 A2989 RMK AO2
KMKS 140655Z AUTO 00000KT 5SM BR SCT080 BKN100 22/22 A2989 RMK AO2
KMKS 140635Z AUTO 00000KT 7SM SCT100 22/22 A2990 RMK AO2
KMKS 140615Z AUTO 00000KT 10SM CLR 22/22 A2990 RMK AO2
KMKS 140555Z AUTO 00000KT 10SM CLR 22/22 A2990 RMK AO2
KMKS 140535Z AUTO 00000KT 7SM CLR 22/22 A2990 RMK AO2
KMKS 140515Z AUTO 00000KT 10SM CLR 22/22 A2990 RMK AO2
KMKS 140455Z AUTO 00000KT 7SM CLR 22/22 A2990 RMK AO2
KMKS 140435Z AUTO 00000KT 7SM CLR 22/22 A2990 RMK AO2
KMKS 140415Z AUTO 00000KT 10SM CLR 22/22 A2990 RMK AO2
KMKS 140355Z AUTO 00000KT 7SM CLR 22/22 A2989 RMK AO2
KMKS 140335Z AUTO 00000KT 7SM CLR 22/22 A2989 RMK AO2
KMKS 140315Z AUTO 00000KT 7SM CLR 22/22 A2989 RMK AO2
KMKS 140255Z AUTO 00000KT 10SM CLR 22/22 A2989 RMK AO2
KMKS 140235Z AUTO 23004KT 10SM SCT060 SCT075 SCT090 22/22 A2990 RMK AO2
KMKS 140215Z AUTO 20005KT 10SM SCT060 SCT075 BKN090 22/22 A2990 RMK AO2
KMKS 140155Z AUTO 21005KT 7SM CLR 22/22 A2991 RMK AO2 P0002
KMKS 140135Z AUTO 19005KT 10SM SCT048 BKN055 22/22 A2991 RMK AO2 LTG DSNT SE P0002
KMKS 140115Z AUTO 13005KT 10SM -VCTSRA SCT033 BKN048 BKN070 22/22 A2991 RMK AO2 LTG DSNT SE P0002
KMKS 140055Z AUTO 18004KT 5SM -TSRA SCT010 SCT015 BKN031 22/22 A2990 RMK AO2 LTG DSNT E THRU S P0049